Time;durP1;ratioP1;P1;durP2;ratioP2;P2;SDS_P1;SDS_P2;PMS_P1;PMS_P2;Temp;Humidity;BMP_temperature;BMP_pressure;BME280_temperature;BME280_humidity;BME280_pressure;Samples;Min_cycle;Max_cycle;Signal;HPM_P1;HPM_P2
2023/01/17 00:00:36;;;;;;;0.10;0.10;;;;;;;;;;1746575;28;20621;-72
2023/01/17 00:01:28;;;;;;;0.10;0.10;;;;;;;;;;1745339;28;20316;-74
2023/01/17 00:02:20;;;;;;;0.10;0.10;;;;;;;;;;1746400;28;20585;-74
2023/01/17 00:03:11;;;;;;;0.10;0.10;;;;;;;;;;1746219;28;20297;-72
2023/01/17 00:10:02;;;;;;;0.20;0.20;;;;;;;;;;1745938;28;20282;-71
2023/01/17 00:10:53;;;;;;;0.10;0.10;;;;;;;;;;1747290;28;20728;-72
2023/01/17 00:11:44;;;;;;;0.10;0.10;;;;;;;;;;1745890;28;20618;-72
2023/01/17 00:12:36;;;;;;;0.10;0.10;;;;;;;;;;1745715;28;20636;-72
2023/01/17 00:13:27;;;;;;;0.10;0.10;;;;;;;;;;1745790;28;20624;-73
2023/01/17 00:14:19;;;;;;;0.20;0.20;;;;;;;;;;1746122;28;20202;-72
2023/01/17 00:15:10;;;;;;;0.10;0.10;;;;;;;;;;1739897;28;20211;-72
2023/01/17 00:16:04;;;;;;;0.15;0.15;;;;;;;;;;1744451;28;20218;-73
2023/01/17 00:16:55;;;;;;;0.10;0.10;;;;;;;;;;1746032;28;20241;-73
2023/01/17 00:17:47;;;;;;;0.20;0.20;;;;;;;;;;1745856;28;20822;-73
2023/01/17 00:18:38;;;;;;;0.08;0.08;;;;;;;;;;1746216;28;20607;-72
2023/01/17 00:26:31;;;;;;;0.15;0.15;;;;;;;;;;1746530;28;20198;-73
2023/01/17 01:33:52;;;;;;;0.13;0.13;;;;;;;;;;1751149;28;20682;-73
2023/01/17 01:34:43;;;;;;;0.10;0.10;;;;;;;;;;1749523;28;20309;-72
2023/01/17 01:35:36;;;;;;;0.10;0.10;;;;;;;;;;1748807;28;20204;-70
2023/01/17 01:36:27;;;;;;;0.00;0.00;;;;;;;;;;1746767;28;20597;-74
2023/01/17 01:37:19;;;;;;;0.00;0.00;;;;;;;;;;1747123;28;20267;-74
2023/01/17 01:38:10;;;;;;;0.10;0.10;;;;;;;;;;1746713;28;20222;-74
2023/01/17 01:39:02;;;;;;;0.10;0.10;;;;;;;;;;1746770;28;20198;-72
2023/01/17 01:39:53;;;;;;;0.20;0.20;;;;;;;;;;1747537;28;20209;-72
2023/01/17 01:40:46;;;;;;;0.10;0.10;;;;;;;;;;1747030;28;20263;-72
2023/01/17 01:41:37;;;;;;;0.10;0.10;;;;;;;;;;1746535;28;20222;-72
2023/01/17 01:42:29;;;;;;;0.10;0.10;;;;;;;;;;1747249;28;20198;-72
2023/01/17 01:43:21;;;;;;;0.05;0.05;;;;;;;;;;1747381;28;20214;-72
2023/01/17 01:44:31;;;;;;;0.08;0.08;;;;;;;;;;1746761;28;20217;-71
2023/01/17 01:45:23;;;;;;;0.10;0.10;;;;;;;;;;1727683;28;20183;-72
2023/01/17 01:46:17;;;;;;;0.20;0.20;;;;;;;;;;1749184;28;20465;-74
2023/01/17 01:47:08;;;;;;;0.10;0.10;;;;;;;;;;1746639;28;20203;-73
2023/01/17 01:48:03;;;;;;;0.10;0.10;;;;;;;;;;1746609;28;20210;-74
2023/01/17 01:48:56;;;;;;;0.10;0.10;;;;;;;;;;1744296;28;20574;-73
2023/01/17 01:49:48;;;;;;;0.05;0.05;;;;;;;;;;1748268;28;20679;-72
2023/01/17 01:50:39;;;;;;;0.20;0.20;;;;;;;;;;1747373;28;20201;-73
2023/01/17 01:51:33;;;;;;;0.20;0.20;;;;;;;;;;1747283;28;20195;-73
2023/01/17 01:52:26;;;;;;;0.15;0.15;;;;;;;;;;1752837;28;20476;-73
2023/01/17 01:53:19;;;;;;;0.20;0.20;;;;;;;;;;1747865;28;20606;-73
2023/01/17 01:54:13;;;;;;;0.10;0.10;;;;;;;;;;1751562;28;20205;-73
2023/01/17 01:55:07;;;;;;;0.10;0.10;;;;;;;;;;1745654;28;20210;-73
2023/01/17 01:55:59;;;;;;;0.10;0.10;;;;;;;;;;1748208;28;20213;-73
2023/01/17 01:56:53;;;;;;;0.00;0.00;;;;;;;;;;1750343;28;20208;-72
2023/01/17 01:57:46;;;;;;;0.13;0.13;;;;;;;;;;1750925;28;20210;-73
2023/01/17 01:58:39;;;;;;;0.10;0.10;;;;;;;;;;1748666;28;20634;-71
2023/01/17 01:59:33;;;;;;;0.03;0.03;;;;;;;;;;1749042;28;20210;-71
2023/01/17 02:00:26;;;;;;;0.10;0.10;;;;;;;;;;1746930;28;20234;-73
2023/01/17 02:01:17;;;;;;;0.10;0.10;;;;;;;;;;1748725;28;20682;-72
2023/01/17 02:02:09;;;;;;;0.10;0.10;;;;;;;;;;1746470;28;20232;-71
2023/01/17 02:03:04;;;;;;;0.10;0.10;;;;;;;;;;1747586;28;20207;-71
2023/01/17 02:03:56;;;;;;;0.22;0.22;;;;;;;;;;1746585;28;20206;-71
2023/01/17 02:04:47;;;;;;;0.25;0.25;;;;;;;;;;1748614;28;20529;-71
2023/01/17 02:05:41;;;;;;;0.10;0.10;;;;;;;;;;1749134;28;20210;-71
2023/01/17 02:06:34;;;;;;;0.20;0.20;;;;;;;;;;1744769;28;20217;-71
2023/01/17 02:07:30;;;;;;;0.10;0.10;;;;;;;;;;1746621;28;20198;-71
2023/01/17 02:08:22;;;;;;;0.05;0.05;;;;;;;;;;1747081;28;20347;-71
2023/01/17 02:09:15;;;;;;;0.10;0.10;;;;;;;;;;1751153;28;20201;-71
2023/01/17 02:10:06;;;;;;;0.00;0.00;;;;;;;;;;1746890;28;20202;-70
2023/01/17 02:10:58;;;;;;;0.10;0.10;;;;;;;;;;1745094;28;20234;-72
2023/01/17 02:11:50;;;;;;;0.20;0.20;;;;;;;;;;1746800;28;20314;-73
2023/01/17 02:12:42;;;;;;;0.10;0.10;;;;;;;;;;1746025;28;20271;-74
2023/01/17 02:13:33;;;;;;;0.20;0.20;;;;;;;;;;1747813;28;20234;-73
2023/01/17 02:14:25;;;;;;;0.00;0.00;;;;;;;;;;1750199;28;20317;-72
2023/01/17 02:15:16;;;;;;;0.10;0.10;;;;;;;;;;1740559;28;20211;-72
2023/01/17 02:16:14;;;;;;;0.17;0.17;;;;;;;;;;1748049;28;20224;-71
2023/01/17 02:17:09;;;;;;;0.20;0.20;;;;;;;;;;1752094;28;20658;-73
2023/01/17 02:18:09;;;;;;;0.10;0.10;;;;;;;;;;1747572;28;20202;-73
2023/01/17 02:19:07;;;;;;;0.30;0.30;;;;;;;;;;1751339;28;20202;-72
2023/01/17 02:20:22;;;;;;;0.00;0.00;;;;;;;;;;1745859;28;20207;-70
2023/01/17 02:21:23;;;;;;;0.10;0.10;;;;;;;;;;1746248;28;20218;-70
2023/01/17 02:22:34;;;;;;;0.25;0.25;;;;;;;;;;1739713;28;20228;-70
2023/01/17 02:23:38;;;;;;;0.10;0.10;;;;;;;;;;1737207;28;20199;-71
2023/01/17 02:24:40;;;;;;;0.10;0.10;;;;;;;;;;1743875;28;20289;-71
2023/01/17 02:25:44;;;;;;;0.15;0.15;;;;;;;;;;1747030;28;20558;-70
2023/01/17 02:26:41;;;;;;;0.10;0.10;;;;;;;;;;1747680;28;20733;-72
2023/01/17 02:27:40;;;;;;;0.20;0.20;;;;;;;;;;1751396;28;20190;-72
2023/01/17 02:28:42;;;;;;;0.10;0.10;;;;;;;;;;1747457;28;20198;-72
2023/01/17 02:29:57;;;;;;;0.13;0.13;;;;;;;;;;1749716;28;20233;-72
2023/01/17 02:30:51;;;;;;;0.10;0.10;;;;;;;;;;1748385;28;20234;-72
2023/01/17 02:31:47;;;;;;;0.10;0.10;;;;;;;;;;1748810;28;20221;-71
2023/01/17 02:32:45;;;;;;;0.10;0.10;;;;;;;;;;1751837;28;20182;-71
2023/01/17 02:33:39;;;;;;;0.10;0.10;;;;;;;;;;1746560;28;20225;-71
2023/01/17 02:34:35;;;;;;;0.10;0.10;;;;;;;;;;1747053;28;20206;-70
2023/01/17 02:35:30;;;;;;;0.10;0.10;;;;;;;;;;1747402;28;20632;-70
2023/01/17 02:36:23;;;;;;;0.00;0.00;;;;;;;;;;1746565;28;20199;-72
2023/01/17 02:37:17;;;;;;;0.10;0.10;;;;;;;;;;1753191;28;20216;-72
2023/01/17 02:38:14;;;;;;;0.17;0.17;;;;;;;;;;1746346;28;20206;-72
2023/01/17 02:39:09;;;;;;;0.13;0.13;;;;;;;;;;1746444;28;20206;-72
2023/01/17 02:40:03;;;;;;;0.10;0.10;;;;;;;;;;1747855;28;20305;-72
2023/01/17 02:40:56;;;;;;;0.15;0.15;;;;;;;;;;1746149;28;20228;-71
2023/01/17 02:41:51;;;;;;;0.00;0.00;;;;;;;;;;1746501;28;20258;-70
2023/01/17 02:42:46;;;;;;;0.08;0.08;;;;;;;;;;1744924;28;20627;-73
2023/01/17 02:43:37;;;;;;;0.00;0.00;;;;;;;;;;1744707;28;20340;-73
2023/01/17 02:44:29;;;;;;;0.00;0.00;;;;;;;;;;1746201;28;20532;-72
2023/01/17 02:45:20;;;;;;;0.20;0.20;;;;;;;;;;1747131;28;20203;-71
2023/01/17 02:46:13;;;;;;;0.20;0.20;;;;;;;;;;1746044;28;20252;-72
2023/01/17 02:47:18;;;;;;;0.20;0.20;;;;;;;;;;1751591;28;20253;-72
2023/01/17 02:48:11;;;;;;;0.10;0.10;;;;;;;;;;1746907;28;20206;-72
2023/01/17 02:49:02;;;;;;;0.10;0.10;;;;;;;;;;1750993;28;20217;-72
2023/01/17 02:49:55;;;;;;;0.10;0.10;;;;;;;;;;1745914;28;20202;-72
2023/01/17 02:50:58;;;;;;;0.17;0.17;;;;;;;;;;1746569;28;20652;-72
2023/01/17 02:52:01;;;;;;;0.10;0.10;;;;;;;;;;1746435;28;20206;-71
2023/01/17 02:53:01;;;;;;;0.20;0.20;;;;;;;;;;1747088;28;20275;-71
2023/01/17 02:53:59;;;;;;;0.30;0.30;;;;;;;;;;1750034;28;20240;-71
2023/01/17 02:54:58;;;;;;;0.10;0.10;;;;;;;;;;1748054;28;20213;-71
2023/01/17 02:55:54;;;;;;;0.15;0.15;;;;;;;;;;1746501;28;20574;-71
2023/01/17 02:56:49;;;;;;;0.10;0.10;;;;;;;;;;1746387;28;20267;-72
2023/01/17 02:57:50;;;;;;;0.20;0.20;;;;;;;;;;1746997;28;20293;-72
2023/01/17 02:58:50;;;;;;;0.17;0.17;;;;;;;;;;1746379;28;20244;-72
2023/01/17 02:59:46;;;;;;;0.10;0.10;;;;;;;;;;1746048;28;20566;-72
2023/01/17 03:00:39;;;;;;;0.08;0.08;;;;;;;;;;1747647;28;20238;-73
2023/01/17 03:01:35;;;;;;;0.00;0.00;;;;;;;;;;1746233;28;20289;-71
2023/01/17 03:02:30;;;;;;;0.00;0.00;;;;;;;;;;1746393;28;20286;-71
2023/01/17 03:03:24;;;;;;;0.10;0.10;;;;;;;;;;1742526;28;20226;-71
2023/01/17 03:04:18;;;;;;;0.13;0.13;;;;;;;;;;1746082;28;20696;-71
2023/01/17 03:05:12;;;;;;;0.10;0.10;;;;;;;;;;1746818;28;20202;-71
2023/01/17 03:06:10;;;;;;;0.10;0.10;;;;;;;;;;1748200;28;20772;-72
2023/01/17 03:07:03;;;;;;;0.10;0.10;;;;;;;;;;1750819;28;20690;-72
2023/01/17 03:07:54;;;;;;;0.10;0.10;;;;;;;;;;1749545;28;20218;-72
2023/01/17 03:08:47;;;;;;;0.25;0.25;;;;;;;;;;1746771;28;20267;-72
2023/01/17 03:09:42;;;;;;;0.20;0.20;;;;;;;;;;1746479;28;20571;-72
2023/01/17 03:10:35;;;;;;;0.10;0.10;;;;;;;;;;1746573;28;20521;-72
2023/01/17 03:11:26;;;;;;;0.10;0.10;;;;;;;;;;1746273;28;20667;-72
2023/01/17 03:12:18;;;;;;;0.10;0.10;;;;;;;;;;1746226;28;20217;-72
2023/01/17 03:13:10;;;;;;;0.20;0.20;;;;;;;;;;1745986;28;20209;-72
2023/01/17 03:14:01;;;;;;;0.05;0.05;;;;;;;;;;1750625;28;20258;-72
2023/01/17 03:14:53;;;;;;;0.10;0.10;;;;;;;;;;1745934;28;20293;-72
2023/01/17 03:15:45;;;;;;;0.00;0.00;;;;;;;;;;1748303;28;20218;-72
2023/01/17 03:16:38;;;;;;;0.13;0.13;;;;;;;;;;1745508;28;20279;-71
2023/01/17 03:17:31;;;;;;;0.10;0.10;;;;;;;;;;1752008;28;20202;-71
2023/01/17 03:18:23;;;;;;;0.10;0.10;;;;;;;;;;1746360;28;20505;-71
2023/01/17 03:19:14;;;;;;;0.00;0.00;;;;;;;;;;1746198;28;20259;-71
2023/01/17 03:20:07;;;;;;;0.10;0.10;;;;;;;;;;1746533;28;20540;-72
2023/01/17 03:20:58;;;;;;;0.20;0.20;;;;;;;;;;1745928;28;20271;-72
2023/01/17 03:21:50;;;;;;;0.10;0.10;;;;;;;;;;1746209;28;20206;-72
2023/01/17 03:22:41;;;;;;;0.10;0.10;;;;;;;;;;1746629;28;20222;-71
2023/01/17 03:23:33;;;;;;;0.20;0.20;;;;;;;;;;1746226;28;20259;-73
2023/01/17 03:24:24;;;;;;;0.20;0.20;;;;;;;;;;1746225;28;20631;-73
2023/01/17 03:25:16;;;;;;;0.10;0.10;;;;;;;;;;1748383;28;20512;-72
2023/01/17 03:26:07;;;;;;;0.10;0.10;;;;;;;;;;1745840;28;20267;-71
2023/01/17 03:26:59;;;;;;;0.10;0.10;;;;;;;;;;1749897;28;20551;-72
2023/01/17 03:27:50;;;;;;;0.17;0.17;;;;;;;;;;1749662;28;20258;-72
2023/01/17 03:28:42;;;;;;;0.00;0.00;;;;;;;;;;1747991;28;20214;-72
2023/01/17 03:29:33;;;;;;;0.15;0.15;;;;;;;;;;1748499;28;20202;-72
2023/01/17 03:30:25;;;;;;;0.13;0.13;;;;;;;;;;1746562;28;20198;-71
2023/01/17 03:31:18;;;;;;;0.10;0.10;;;;;;;;;;1747838;28;20635;-71
2023/01/17 03:32:12;;;;;;;0.00;0.00;;;;;;;;;;1751973;28;20874;-71
2023/01/17 03:33:03;;;;;;;0.17;0.17;;;;;;;;;;1746946;28;20221;-71
2023/01/17 03:33:55;;;;;;;0.20;0.20;;;;;;;;;;1749828;28;20206;-71
2023/01/17 03:34:46;;;;;;;0.00;0.00;;;;;;;;;;1746588;28;20210;-72
2023/01/17 03:35:38;;;;;;;0.10;0.10;;;;;;;;;;1746711;28;20208;-71
2023/01/17 03:36:29;;;;;;;0.20;0.20;;;;;;;;;;1745809;28;20656;-71
2023/01/17 03:37:21;;;;;;;0.20;0.20;;;;;;;;;;1753473;28;20685;-71
2023/01/17 03:38:12;;;;;;;0.10;0.10;;;;;;;;;;1745884;28;20210;-71
2023/01/17 03:39:04;;;;;;;0.00;0.00;;;;;;;;;;1746041;28;20198;-71
2023/01/17 03:39:55;;;;;;;0.10;0.10;;;;;;;;;;1745990;28;20210;-71
2023/01/17 03:40:47;;;;;;;0.20;0.20;;;;;;;;;;1748172;28;20624;-71
2023/01/17 03:41:38;;;;;;;0.10;0.10;;;;;;;;;;1746008;28;20198;-71
2023/01/17 03:42:30;;;;;;;0.10;0.10;;;;;;;;;;1746205;28;20226;-71
2023/01/17 03:43:21;;;;;;;0.30;0.30;;;;;;;;;;1746316;28;20206;-71
2023/01/17 03:44:13;;;;;;;0.10;0.10;;;;;;;;;;1745984;28;20259;-71
2023/01/17 03:45:04;;;;;;;0.10;0.10;;;;;;;;;;1746331;28;20202;-71
2023/01/17 03:46:02;;;;;;;0.10;0.10;;;;;;;;;;1747641;28;20209;-72
2023/01/17 03:46:53;;;;;;;0.10;0.10;;;;;;;;;;1749425;28;20257;-72
2023/01/17 03:47:46;;;;;;;0.30;0.30;;;;;;;;;;1749443;28;20255;-72
2023/01/17 03:48:40;;;;;;;0.20;0.20;;;;;;;;;;1746135;28;20632;-72
2023/01/17 03:49:32;;;;;;;0.00;0.00;;;;;;;;;;1745807;28;20525;-72
2023/01/17 03:50:23;;;;;;;0.10;0.10;;;;;;;;;;1748074;28;20197;-72
2023/01/17 03:51:15;;;;;;;0.20;0.20;;;;;;;;;;1747458;28;20616;-71
2023/01/17 03:52:06;;;;;;;0.10;0.10;;;;;;;;;;1751112;28;20206;-71
2023/01/17 03:52:58;;;;;;;0.20;0.20;;;;;;;;;;1748649;28;20279;-72
2023/01/17 03:53:50;;;;;;;0.17;0.17;;;;;;;;;;1745997;28;20278;-71
2023/01/17 03:54:42;;;;;;;0.05;0.05;;;;;;;;;;1747616;28;20546;-71
2023/01/17 03:55:33;;;;;;;0.08;0.08;;;;;;;;;;1746412;28;20537;-71
2023/01/17 03:56:25;;;;;;;0.20;0.20;;;;;;;;;;1746137;28;20570;-72
2023/01/17 03:57:16;;;;;;;0.25;0.25;;;;;;;;;;1745969;28;20461;-72
2023/01/17 03:58:08;;;;;;;0.10;0.10;;;;;;;;;;1745499;28;20267;-72
2023/01/17 03:58:59;;;;;;;0.10;0.10;;;;;;;;;;1750307;28;20202;-73
2023/01/17 03:59:51;;;;;;;0.20;0.20;;;;;;;;;;1747325;28;20210;-72
2023/01/17 04:00:42;;;;;;;0.20;0.20;;;;;;;;;;1737051;28;20267;-72
2023/01/17 04:01:34;;;;;;;0.10;0.10;;;;;;;;;;1739227;28;20206;-73
2023/01/17 04:02:25;;;;;;;0.03;0.03;;;;;;;;;;1745649;28;20270;-73
2023/01/17 04:03:19;;;;;;;0.10;0.10;;;;;;;;;;1738728;28;20556;-73
2023/01/17 04:04:10;;;;;;;0.10;0.10;;;;;;;;;;1743219;28;20214;-72
2023/01/17 04:05:03;;;;;;;0.20;0.20;;;;;;;;;;1739248;28;20203;-73
2023/01/17 04:05:54;;;;;;;0.20;0.20;;;;;;;;;;1738885;28;20602;-72
2023/01/17 04:06:46;;;;;;;0.15;0.15;;;;;;;;;;1739009;28;20207;-72
2023/01/17 04:07:37;;;;;;;0.10;0.10;;;;;;;;;;1739539;28;20635;-73
2023/01/17 04:08:29;;;;;;;0.10;0.10;;;;;;;;;;1739429;28;20448;-72
2023/01/17 04:09:20;;;;;;;0.00;0.00;;;;;;;;;;1734891;28;20253;-73
2023/01/17 04:10:12;;;;;;;0.00;0.00;;;;;;;;;;1740951;28;20210;-72
2023/01/17 04:11:03;;;;;;;0.25;0.25;;;;;;;;;;1740522;28;20293;-71
2023/01/17 04:11:55;;;;;;;0.20;0.20;;;;;;;;;;1739183;28;20491;-71
2023/01/17 04:12:46;;;;;;;0.10;0.10;;;;;;;;;;1738201;28;20631;-71
2023/01/17 04:13:38;;;;;;;0.15;0.15;;;;;;;;;;1740143;28;20203;-71
2023/01/17 04:14:29;;;;;;;0.05;0.05;;;;;;;;;;1742337;28;20350;-71
2023/01/17 04:15:21;;;;;;;0.10;0.10;;;;;;;;;;1741280;28;20280;-71
2023/01/17 04:16:13;;;;;;;0.00;0.00;;;;;;;;;;1740677;28;20211;-73
2023/01/17 04:17:05;;;;;;;0.03;0.03;;;;;;;;;;1738973;28;20199;-72
2023/01/17 04:17:57;;;;;;;0.20;0.20;;;;;;;;;;1739606;28;20639;-72
2023/01/17 04:18:50;;;;;;;0.10;0.10;;;;;;;;;;1739802;28;20532;-72
2023/01/17 04:19:41;;;;;;;0.10;0.10;;;;;;;;;;1740324;28;20203;-72
2023/01/17 04:20:34;;;;;;;0.13;0.13;;;;;;;;;;1741174;28;20199;-72
2023/01/17 04:21:25;;;;;;;0.00;0.00;;;;;;;;;;1740993;28;20207;-72
2023/01/17 04:22:17;;;;;;;0.10;0.10;;;;;;;;;;1740964;28;20435;-72
2023/01/17 04:23:08;;;;;;;0.10;0.10;;;;;;;;;;1737109;28;20223;-72
2023/01/17 04:23:59;;;;;;;0.10;0.10;;;;;;;;;;1743160;28;20578;-72
2023/01/17 04:24:51;;;;;;;0.28;0.28;;;;;;;;;;1740141;28;20210;-72
2023/01/17 04:25:42;;;;;;;0.20;0.20;;;;;;;;;;1736364;28;20215;-72
2023/01/17 04:26:34;;;;;;;0.20;0.20;;;;;;;;;;1735366;28;20265;-72
2023/01/17 04:27:25;;;;;;;0.30;0.30;;;;;;;;;;1746819;28;20581;-72
2023/01/17 04:28:17;;;;;;;0.20;0.20;;;;;;;;;;1738958;28;20218;-72
2023/01/17 04:29:08;;;;;;;0.10;0.10;;;;;;;;;;1740337;28;20294;-72
2023/01/17 04:30:03;;;;;;;0.17;0.17;;;;;;;;;;1741599;28;20209;-73
2023/01/17 04:30:56;;;;;;;0.20;0.20;;;;;;;;;;1740437;28;20913;-73
2023/01/17 04:31:48;;;;;;;0.13;0.13;;;;;;;;;;1739198;28;20207;-72
2023/01/17 04:32:39;;;;;;;0.10;0.10;;;;;;;;;;1735879;28;20192;-72
2023/01/17 04:33:32;;;;;;;0.10;0.10;;;;;;;;;;1741027;28;20199;-72
2023/01/17 04:34:24;;;;;;;0.10;0.10;;;;;;;;;;1736319;28;20220;-73
2023/01/17 04:35:16;;;;;;;0.20;0.20;;;;;;;;;;1740867;28;20502;-72
2023/01/17 04:36:09;;;;;;;0.20;0.20;;;;;;;;;;1740095;28;20223;-71
2023/01/17 04:37:00;;;;;;;0.10;0.10;;;;;;;;;;1740653;28;20214;-71
2023/01/17 04:37:52;;;;;;;0.15;0.15;;;;;;;;;;1740657;28;20199;-71
2023/01/17 04:38:43;;;;;;;0.10;0.10;;;;;;;;;;1740517;28;20215;-71
2023/01/17 04:39:35;;;;;;;0.20;0.20;;;;;;;;;;1740067;28;20195;-71
2023/01/17 04:40:26;;;;;;;0.30;0.30;;;;;;;;;;1741173;28;20207;-71
2023/01/17 04:41:18;;;;;;;0.30;0.30;;;;;;;;;;1741760;28;20294;-72
2023/01/17 04:42:09;;;;;;;0.20;0.20;;;;;;;;;;1745386;28;20244;-71
2023/01/17 04:43:01;;;;;;;0.10;0.10;;;;;;;;;;1742099;28;20261;-72
2023/01/17 04:43:52;;;;;;;0.10;0.10;;;;;;;;;;1739010;28;20215;-71
2023/01/17 04:44:44;;;;;;;0.28;0.28;;;;;;;;;;1737615;28;20309;-71
2023/01/17 04:45:37;;;;;;;0.10;0.10;;;;;;;;;;1734559;28;20207;-71
2023/01/17 04:46:29;;;;;;;0.10;0.10;;;;;;;;;;1740249;28;20202;-72
2023/01/17 04:47:20;;;;;;;0.13;0.13;;;;;;;;;;1741376;28;20211;-72
2023/01/17 04:48:12;;;;;;;0.10;0.10;;;;;;;;;;1738053;28;20341;-72
2023/01/17 04:49:03;;;;;;;0.00;0.00;;;;;;;;;;1737168;28;20212;-72
2023/01/17 04:49:56;;;;;;;0.20;0.20;;;;;;;;;;1739840;28;20210;-72
2023/01/17 04:50:47;;;;;;;0.10;0.10;;;;;;;;;;1741911;28;20214;-73
2023/01/17 04:51:39;;;;;;;0.15;0.15;;;;;;;;;;1740024;28;20200;-72
2023/01/17 04:52:30;;;;;;;0.35;0.35;;;;;;;;;;1746464;28;20198;-72
2023/01/17 04:53:22;;;;;;;0.20;0.20;;;;;;;;;;1740721;28;20195;-72
2023/01/17 04:54:13;;;;;;;0.10;0.10;;;;;;;;;;1740261;28;20263;-72
2023/01/17 04:55:06;;;;;;;0.30;0.30;;;;;;;;;;1742140;28;20207;-72
2023/01/17 04:55:57;;;;;;;0.10;0.10;;;;;;;;;;1740073;28;20263;-71
2023/01/17 04:56:49;;;;;;;0.15;0.15;;;;;;;;;;1742148;28;20199;-71
2023/01/17 04:57:40;;;;;;;0.10;0.10;;;;;;;;;;1740430;28;20595;-71
2023/01/17 04:58:32;;;;;;;0.20;0.20;;;;;;;;;;1740657;28;20200;-71
2023/01/17 04:59:23;;;;;;;0.10;0.10;;;;;;;;;;1739889;28;20292;-71
2023/01/17 05:00:15;;;;;;;0.10;0.10;;;;;;;;;;1744704;28;20249;-71
2023/01/17 05:01:08;;;;;;;0.20;0.20;;;;;;;;;;1748172;28;20206;-71
2023/01/17 05:02:00;;;;;;;0.10;0.10;;;;;;;;;;1750805;28;20198;-71
2023/01/17 05:02:51;;;;;;;0.10;0.10;;;;;;;;;;1750505;28;20355;-71
2023/01/17 05:03:43;;;;;;;0.30;0.30;;;;;;;;;;1748524;28;20234;-71
2023/01/17 05:04:34;;;;;;;0.05;0.05;;;;;;;;;;1749801;28;20206;-71
2023/01/17 05:05:28;;;;;;;0.15;0.15;;;;;;;;;;1748823;28;20199;-71
2023/01/17 05:06:19;;;;;;;0.20;0.20;;;;;;;;;;1748338;28;20206;-73
2023/01/17 05:07:11;;;;;;;0.10;0.10;;;;;;;;;;1752059;28;20542;-72
2023/01/17 05:08:02;;;;;;;0.10;0.10;;;;;;;;;;1748972;28;20536;-72
2023/01/17 05:08:54;;;;;;;0.17;0.17;;;;;;;;;;1749739;28;20255;-72
2023/01/17 05:09:45;;;;;;;0.10;0.10;;;;;;;;;;1749260;28;20259;-72
2023/01/17 05:10:37;;;;;;;0.10;0.10;;;;;;;;;;1747773;28;20494;-73
2023/01/17 05:11:28;;;;;;;0.13;0.13;;;;;;;;;;1747912;28;20613;-71
2023/01/17 05:12:20;;;;;;;0.15;0.15;;;;;;;;;;1753396;28;20206;-71
2023/01/17 05:13:11;;;;;;;0.30;0.30;;;;;;;;;;1747922;28;20198;-71
2023/01/17 05:14:03;;;;;;;0.10;0.10;;;;;;;;;;1750969;28;20691;-71
2023/01/17 05:14:54;;;;;;;0.20;0.20;;;;;;;;;;1748374;28;20214;-71
2023/01/17 05:15:46;;;;;;;0.10;0.10;;;;;;;;;;1748802;28;20210;-71
2023/01/17 05:16:37;;;;;;;0.10;0.10;;;;;;;;;;1747043;28;20251;-73
2023/01/17 05:17:29;;;;;;;0.20;0.20;;;;;;;;;;1753726;28;20259;-73
2023/01/17 05:18:20;;;;;;;0.20;0.20;;;;;;;;;;1747085;28;20355;-72
2023/01/17 05:19:12;;;;;;;0.20;0.20;;;;;;;;;;1751354;28;20539;-73
2023/01/17 05:20:03;;;;;;;0.20;0.20;;;;;;;;;;1748542;28;20218;-73
2023/01/17 05:21:00;;;;;;;0.10;0.10;;;;;;;;;;1748490;28;20201;-73
2023/01/17 05:21:52;;;;;;;0.20;0.20;;;;;;;;;;1744668;28;20203;-73
2023/01/17 05:22:46;;;;;;;0.10;0.10;;;;;;;;;;1747450;28;20224;-73
2023/01/17 05:23:37;;;;;;;0.10;0.10;;;;;;;;;;1747144;28;20493;-73
2023/01/17 05:24:29;;;;;;;0.30;0.30;;;;;;;;;;1747171;28;20213;-73
2023/01/17 05:25:20;;;;;;;0.20;0.20;;;;;;;;;;1748986;28;20618;-73
2023/01/17 05:26:12;;;;;;;0.10;0.10;;;;;;;;;;1746682;28;20876;-73
2023/01/17 05:27:03;;;;;;;0.38;0.38;;;;;;;;;;1750915;28;20217;-73
2023/01/17 05:27:55;;;;;;;0.30;0.30;;;;;;;;;;1749394;28;20496;-73
2023/01/17 05:28:46;;;;;;;0.20;0.20;;;;;;;;;;1748636;28;20267;-73
2023/01/17 05:29:38;;;;;;;0.20;0.20;;;;;;;;;;1749199;28;20267;-73
2023/01/17 05:30:30;;;;;;;0.20;0.20;;;;;;;;;;1746541;28;20586;-73
2023/01/17 05:31:22;;;;;;;0.30;0.30;;;;;;;;;;1748386;28;20210;-73
2023/01/17 05:32:13;;;;;;;0.15;0.15;;;;;;;;;;1752143;28;20217;-73
2023/01/17 05:33:06;;;;;;;0.20;0.20;;;;;;;;;;1748072;28;20229;-73
2023/01/17 05:33:58;;;;;;;0.00;0.00;;;;;;;;;;1750273;28;20252;-73
2023/01/17 05:34:49;;;;;;;0.10;0.10;;;;;;;;;;1748537;28;20655;-73
2023/01/17 05:35:41;;;;;;;0.10;0.10;;;;;;;;;;1748113;28;20506;-73
2023/01/17 05:36:34;;;;;;;0.22;0.22;;;;;;;;;;1747003;28;20255;-71
2023/01/17 05:37:26;;;;;;;0.20;0.20;;;;;;;;;;1747291;28;20262;-71
2023/01/17 05:38:17;;;;;;;0.10;0.10;;;;;;;;;;1746912;28;20218;-71
2023/01/17 05:39:09;;;;;;;0.10;0.10;;;;;;;;;;1746721;28;20632;-71
2023/01/17 05:40:00;;;;;;;0.30;0.30;;;;;;;;;;1748233;28;20206;-71
2023/01/17 05:40:52;;;;;;;0.17;0.17;;;;;;;;;;1748367;28;20650;-71
2023/01/17 05:41:43;;;;;;;0.20;0.20;;;;;;;;;;1748028;28;20310;-73
2023/01/17 05:42:35;;;;;;;0.13;0.13;;;;;;;;;;1752587;28;20624;-73
2023/01/17 05:43:26;;;;;;;0.20;0.20;;;;;;;;;;1746697;28;20275;-73
2023/01/17 05:44:18;;;;;;;0.30;0.30;;;;;;;;;;1751027;28;20205;-73
2023/01/17 05:45:11;;;;;;;0.20;0.20;;;;;;;;;;1746294;28;20206;-73
2023/01/17 05:46:03;;;;;;;0.10;0.10;;;;;;;;;;1748123;28;20252;-72
2023/01/17 05:46:54;;;;;;;0.30;0.30;;;;;;;;;;1749320;28;20270;-72
2023/01/17 05:47:47;;;;;;;0.05;0.05;;;;;;;;;;1750661;28;20442;-71
2023/01/17 05:48:38;;;;;;;0.20;0.20;;;;;;;;;;1747267;28;20198;-72
2023/01/17 05:49:30;;;;;;;0.10;0.10;;;;;;;;;;1750183;28;20252;-71
2023/01/17 05:50:22;;;;;;;0.20;0.20;;;;;;;;;;1748533;28;20207;-71
2023/01/17 05:51:14;;;;;;;0.13;0.13;;;;;;;;;;1746566;28;20194;-72
2023/01/17 05:52:06;;;;;;;0.20;0.20;;;;;;;;;;1751003;28;20258;-71
2023/01/17 05:52:59;;;;;;;0.20;0.20;;;;;;;;;;1749391;28;20213;-71
2023/01/17 05:53:50;;;;;;;0.10;0.10;;;;;;;;;;1748798;28;20696;-71
2023/01/17 05:54:42;;;;;;;0.15;0.15;;;;;;;;;;1749357;28;20574;-71
2023/01/17 05:55:33;;;;;;;0.43;0.43;;;;;;;;;;1747528;28;20255;-71
2023/01/17 05:56:25;;;;;;;0.20;0.20;;;;;;;;;;1747954;28;20217;-73
2023/01/17 05:57:16;;;;;;;0.10;0.10;;;;;;;;;;1750873;28;20589;-72
2023/01/17 05:58:09;;;;;;;0.10;0.10;;;;;;;;;;1747779;28;20281;-72
2023/01/17 05:59:00;;;;;;;0.10;0.10;;;;;;;;;;1750265;28;20262;-72
2023/01/17 05:59:52;;;;;;;0.13;0.13;;;;;;;;;;1747988;28;20252;-72
2023/01/17 06:00:43;;;;;;;0.20;0.20;;;;;;;;;;1747292;28;20266;-73
2023/01/17 06:01:35;;;;;;;0.22;0.22;;;;;;;;;;1746470;28;20209;-72
2023/01/17 06:02:26;;;;;;;0.10;0.10;;;;;;;;;;1740327;28;20242;-72
2023/01/17 06:03:18;;;;;;;0.20;0.20;;;;;;;;;;1746557;28;20202;-73
2023/01/17 06:04:09;;;;;;;0.20;0.20;;;;;;;;;;1750513;28;20292;-73
2023/01/17 06:05:02;;;;;;;0.20;0.20;;;;;;;;;;1748027;28;20205;-73
2023/01/17 06:05:53;;;;;;;0.20;0.20;;;;;;;;;;1747626;28;20210;-73
2023/01/17 06:06:45;;;;;;;0.20;0.20;;;;;;;;;;1746520;28;20271;-71
2023/01/17 06:07:37;;;;;;;0.20;0.20;;;;;;;;;;1746667;28;20360;-71
2023/01/17 06:08:29;;;;;;;0.20;0.20;;;;;;;;;;1747013;28;20689;-71
2023/01/17 06:09:20;;;;;;;0.10;0.10;;;;;;;;;;1750479;28;20258;-71
2023/01/17 06:10:14;;;;;;;0.17;0.17;;;;;;;;;;1748083;28;20256;-71
2023/01/17 06:11:05;;;;;;;0.10;0.10;;;;;;;;;;1747694;28;20225;-73
2023/01/17 06:11:57;;;;;;;0.20;0.20;;;;;;;;;;1746465;28;20202;-73
2023/01/17 06:12:48;;;;;;;0.10;0.10;;;;;;;;;;1746750;28;20206;-73
2023/01/17 06:13:40;;;;;;;0.20;0.20;;;;;;;;;;1747039;28;20205;-73
2023/01/17 06:14:31;;;;;;;0.00;0.00;;;;;;;;;;1750020;28;20198;-73
2023/01/17 06:15:23;;;;;;;0.10;0.10;;;;;;;;;;1747074;28;20208;-73
2023/01/17 06:16:14;;;;;;;0.32;0.32;;;;;;;;;;1747537;28;20481;-73
2023/01/17 06:17:06;;;;;;;0.10;0.10;;;;;;;;;;1746726;28;20194;-73
2023/01/17 06:17:57;;;;;;;0.20;0.20;;;;;;;;;;1746510;28;20246;-73
2023/01/17 06:18:49;;;;;;;0.20;0.20;;;;;;;;;;1746735;28;20218;-73
2023/01/17 06:19:40;;;;;;;0.25;0.25;;;;;;;;;;1746684;28;20563;-73
2023/01/17 06:20:33;;;;;;;0.10;0.10;;;;;;;;;;1747559;28;20221;-73
2023/01/17 06:21:24;;;;;;;0.22;0.22;;;;;;;;;;1746433;28;20221;-72
2023/01/17 06:22:16;;;;;;;0.13;0.13;;;;;;;;;;1744979;28;20636;-72
2023/01/17 06:23:10;;;;;;;0.20;0.20;;;;;;;;;;1746434;28;20210;-72
2023/01/17 06:24:02;;;;;;;0.10;0.10;;;;;;;;;;1750183;28;20702;-72
2023/01/17 06:24:53;;;;;;;0.20;0.20;;;;;;;;;;1746307;28;20259;-72
2023/01/17 06:25:46;;;;;;;0.20;0.20;;;;;;;;;;1747938;28;20264;-72
2023/01/17 06:26:37;;;;;;;0.10;0.10;;;;;;;;;;1746273;28;20611;-73
2023/01/17 06:27:29;;;;;;;0.00;0.00;;;;;;;;;;1753237;28;20553;-73
2023/01/17 06:28:21;;;;;;;0.20;0.20;;;;;;;;;;1746266;28;20273;-73
2023/01/17 06:29:13;;;;;;;0.10;0.10;;;;;;;;;;1750409;28;20197;-73
2023/01/17 06:30:05;;;;;;;0.20;0.20;;;;;;;;;;1747954;28;20262;-73
2023/01/17 06:30:58;;;;;;;0.10;0.10;;;;;;;;;;1746032;28;20198;-72
2023/01/17 06:31:49;;;;;;;0.10;0.10;;;;;;;;;;1748313;28;20210;-72
2023/01/17 06:32:41;;;;;;;0.10;0.10;;;;;;;;;;1751036;28;20240;-72
2023/01/17 06:33:32;;;;;;;0.10;0.10;;;;;;;;;;1746859;28;20206;-72
2023/01/17 06:34:24;;;;;;;0.20;0.20;;;;;;;;;;1750167;28;20285;-72
2023/01/17 06:35:16;;;;;;;0.10;0.10;;;;;;;;;;1747673;28;20243;-74
2023/01/17 06:36:08;;;;;;;0.10;0.10;;;;;;;;;;1746450;28;20569;-71